sensor_id;sensor_type;location;lat;lon;timestamp;P1;durP1;ratioP1;P2;durP2;ratioP2
64619;SDS011;51029;51.058;13.826;2024-03-08T00:00:00;34.67;;;24.60;;
64619;SDS011;51029;51.058;13.826;2024-03-08T00:02:37;35.47;;;25.40;;
64619;SDS011;51029;51.058;13.826;2024-03-08T00:05:04;35.40;;;25.60;;
64619;SDS011;51029;51.058;13.826;2024-03-08T00:07:30;34.00;;;25.03;;
64619;SDS011;51029;51.058;13.826;2024-03-08T00:09:56;36.23;;;25.13;;
64619;SDS011;51029;51.058;13.826;2024-03-08T00:12:22;35.80;;;24.40;;
64619;SDS011;51029;51.058;13.826;2024-03-08T00:14:50;36.20;;;26.10;;
64619;SDS011;51029;51.058;13.826;2024-03-08T00:17:17;36.00;;;25.90;;
64619;SDS011;51029;51.058;13.826;2024-03-08T00:19:43;34.87;;;25.53;;
64619;SDS011;51029;51.058;13.826;2024-03-08T00:22:09;34.43;;;24.77;;
64619;SDS011;51029;51.058;13.826;2024-03-08T00:24:36;36.17;;;25.53;;
64619;SDS011;51029;51.058;13.826;2024-03-08T00:27:02;52.83;;;36.97;;
64619;SDS011;51029;51.058;13.826;2024-03-08T00:29:29;53.43;;;35.53;;
64619;SDS011;51029;51.058;13.826;2024-03-08T00:31:55;36.93;;;27.17;;
64619;SDS011;51029;51.058;13.826;2024-03-08T00:34:22;35.70;;;26.07;;
64619;SDS011;51029;51.058;13.826;2024-03-08T00:36:48;34.07;;;23.53;;
64619;SDS011;51029;51.058;13.826;2024-03-08T00:39:15;32.70;;;23.80;;
64619;SDS011;51029;51.058;13.826;2024-03-08T00:41:41;34.23;;;24.20;;
64619;SDS011;51029;51.058;13.826;2024-03-08T00:44:09;37.17;;;25.70;;
64619;SDS011;51029;51.058;13.826;2024-03-08T00:46:35;37.27;;;25.17;;
64619;SDS011;51029;51.058;13.826;2024-03-08T00:49:01;36.77;;;24.27;;
64619;SDS011;51029;51.058;13.826;2024-03-08T00:51:27;32.83;;;23.73;;
64619;SDS011;51029;51.058;13.826;2024-03-08T00:53:53;35.33;;;25.37;;
64619;SDS011;51029;51.058;13.826;2024-03-08T00:56:19;33.27;;;23.70;;
64619;SDS011;51029;51.058;13.826;2024-03-08T00:58:45;34.13;;;23.73;;
64619;SDS011;51029;51.058;13.826;2024-03-08T01:01:11;33.77;;;25.00;;
64619;SDS011;51029;51.058;13.826;2024-03-08T01:03:41;34.57;;;24.27;;
64619;SDS011;51029;51.058;13.826;2024-03-08T01:06:08;34.60;;;25.13;;
64619;SDS011;51029;51.058;13.826;2024-03-08T01:08:34;33.43;;;25.03;;
64619;SDS011;51029;51.058;13.826;2024-03-08T01:11:03;37.87;;;25.33;;
64619;SDS011;51029;51.058;13.826;2024-03-08T01:13:29;39.83;;;25.97;;
64619;SDS011;51029;51.058;13.826;2024-03-08T01:15:55;36.33;;;24.37;;
64619;SDS011;51029;51.058;13.826;2024-03-08T01:18:21;34.07;;;23.20;;
64619;SDS011;51029;51.058;13.826;2024-03-08T01:20:47;37.70;;;25.67;;
64619;SDS011;51029;51.058;13.826;2024-03-08T01:23:13;36.10;;;25.23;;
64619;SDS011;51029;51.058;13.826;2024-03-08T01:25:39;33.80;;;24.53;;
64619;SDS011;51029;51.058;13.826;2024-03-08T01:28:06;37.67;;;26.40;;
64619;SDS011;51029;51.058;13.826;2024-03-08T01:30:32;36.97;;;25.90;;
64619;SDS011;51029;51.058;13.826;2024-03-08T01:32:59;35.90;;;24.10;;
64619;SDS011;51029;51.058;13.826;2024-03-08T01:35:25;34.27;;;25.20;;
64619;SDS011;51029;51.058;13.826;2024-03-08T01:37:52;38.07;;;25.23;;
64619;SDS011;51029;51.058;13.826;2024-03-08T01:40:18;37.00;;;25.40;;
64619;SDS011;51029;51.058;13.826;2024-03-08T01:42:44;39.17;;;25.50;;
64619;SDS011;51029;51.058;13.826;2024-03-08T01:45:10;40.57;;;26.77;;
64619;SDS011;51029;51.058;13.826;2024-03-08T01:47:36;36.80;;;25.70;;
64619;SDS011;51029;51.058;13.826;2024-03-08T01:50:02;39.07;;;25.20;;
64619;SDS011;51029;51.058;13.826;2024-03-08T01:52:29;36.83;;;24.90;;
64619;SDS011;51029;51.058;13.826;2024-03-08T01:54:57;37.87;;;25.67;;
64619;SDS011;51029;51.058;13.826;2024-03-08T01:57:25;40.33;;;27.47;;
64619;SDS011;51029;51.058;13.826;2024-03-08T01:59:51;41.00;;;25.67;;
64619;SDS011;51029;51.058;13.826;2024-03-08T02:02:19;35.00;;;24.53;;
64619;SDS011;51029;51.058;13.826;2024-03-08T02:04:46;35.10;;;24.57;;
64619;SDS011;51029;51.058;13.826;2024-03-08T02:07:12;34.90;;;25.60;;
64619;SDS011;51029;51.058;13.826;2024-03-08T02:09:38;39.40;;;26.83;;
64619;SDS011;51029;51.058;13.826;2024-03-08T02:12:04;39.87;;;26.30;;
64619;SDS011;51029;51.058;13.826;2024-03-08T02:14:31;37.63;;;25.50;;
64619;SDS011;51029;51.058;13.826;2024-03-08T02:17:00;39.60;;;27.10;;
64619;SDS011;51029;51.058;13.826;2024-03-08T02:19:26;36.03;;;25.23;;
64619;SDS011;51029;51.058;13.826;2024-03-08T02:21:52;36.03;;;25.03;;
64619;SDS011;51029;51.058;13.826;2024-03-08T02:24:18;36.73;;;25.27;;
64619;SDS011;51029;51.058;13.826;2024-03-08T02:26:44;38.83;;;26.43;;
64619;SDS011;51029;51.058;13.826;2024-03-08T02:29:11;36.50;;;26.17;;
64619;SDS011;51029;51.058;13.826;2024-03-08T02:31:37;38.07;;;26.13;;
64619;SDS011;51029;51.058;13.826;2024-03-08T02:34:04;37.93;;;26.10;;
64619;SDS011;51029;51.058;13.826;2024-03-08T02:36:30;40.63;;;27.83;;
64619;SDS011;51029;51.058;13.826;2024-03-08T02:38:59;39.00;;;26.30;;
64619;SDS011;51029;51.058;13.826;2024-03-08T02:41:26;36.53;;;25.40;;
64619;SDS011;51029;51.058;13.826;2024-03-08T02:43:52;38.50;;;26.80;;
64619;SDS011;51029;51.058;13.826;2024-03-08T02:46:18;37.93;;;26.13;;
64619;SDS011;51029;51.058;13.826;2024-03-08T02:48:44;40.57;;;26.90;;
64619;SDS011;51029;51.058;13.826;2024-03-08T02:51:09;38.47;;;26.03;;
64619;SDS011;51029;51.058;13.826;2024-03-08T02:53:35;38.63;;;26.37;;
64619;SDS011;51029;51.058;13.826;2024-03-08T02:56:02;41.30;;;26.83;;
64619;SDS011;51029;51.058;13.826;2024-03-08T02:58:29;39.90;;;26.77;;
64619;SDS011;51029;51.058;13.826;2024-03-08T03:00:55;38.60;;;26.33;;
64619;SDS011;51029;51.058;13.826;2024-03-08T03:03:22;40.23;;;27.07;;
64619;SDS011;51029;51.058;13.826;2024-03-08T03:05:48;41.07;;;27.17;;
64619;SDS011;51029;51.058;13.826;2024-03-08T03:08:14;38.33;;;27.27;;
64619;SDS011;51029;51.058;13.826;2024-03-08T03:10:41;38.43;;;25.73;;
64619;SDS011;51029;51.058;13.826;2024-03-08T03:13:07;40.27;;;26.50;;
64619;SDS011;51029;51.058;13.826;2024-03-08T03:15:33;42.43;;;26.60;;
64619;SDS011;51029;51.058;13.826;2024-03-08T03:17:59;39.20;;;26.83;;
64619;SDS011;51029;51.058;13.826;2024-03-08T03:20:25;41.63;;;27.57;;
64619;SDS011;51029;51.058;13.826;2024-03-08T03:22:57;39.80;;;27.27;;
64619;SDS011;51029;51.058;13.826;2024-03-08T03:25:23;37.70;;;26.93;;
64619;SDS011;51029;51.058;13.826;2024-03-08T03:27:51;38.60;;;28.37;;
64619;SDS011;51029;51.058;13.826;2024-03-08T03:30:17;38.47;;;27.13;;
64619;SDS011;51029;51.058;13.826;2024-03-08T03:32:49;38.63;;;27.33;;
64619;SDS011;51029;51.058;13.826;2024-03-08T03:35:20;38.27;;;26.03;;
64619;SDS011;51029;51.058;13.826;2024-03-08T03:37:46;42.57;;;27.37;;
64619;SDS011;51029;51.058;13.826;2024-03-08T03:40:31;41.30;;;27.63;;
64619;SDS011;51029;51.058;13.826;2024-03-08T03:42:57;40.60;;;27.87;;
64619;SDS011;51029;51.058;13.826;2024-03-08T03:45:23;42.77;;;28.80;;
64619;SDS011;51029;51.058;13.826;2024-03-08T03:47:49;44.13;;;28.83;;
64619;SDS011;51029;51.058;13.826;2024-03-08T03:50:16;40.53;;;27.50;;
64619;SDS011;51029;51.058;13.826;2024-03-08T03:52:44;41.33;;;28.50;;
64619;SDS011;51029;51.058;13.826;2024-03-08T03:55:09;41.43;;;28.03;;
64619;SDS011;51029;51.058;13.826;2024-03-08T03:57:36;40.47;;;28.93;;
64619;SDS011;51029;51.058;13.826;2024-03-08T04:00:03;42.33;;;28.60;;
64619;SDS011;51029;51.058;13.826;2024-03-08T04:02:29;39.43;;;28.13;;
64619;SDS011;51029;51.058;13.826;2024-03-08T04:04:55;41.07;;;27.87;;
64619;SDS011;51029;51.058;13.826;2024-03-08T04:07:21;41.70;;;27.60;;
64619;SDS011;51029;51.058;13.826;2024-03-08T04:09:47;41.93;;;27.80;;
64619;SDS011;51029;51.058;13.826;2024-03-08T04:12:13;40.10;;;27.03;;
64619;SDS011;51029;51.058;13.826;2024-03-08T04:14:40;43.03;;;29.80;;
64619;SDS011;51029;51.058;13.826;2024-03-08T04:17:07;40.67;;;27.97;;
64619;SDS011;51029;51.058;13.826;2024-03-08T04:19:34;40.03;;;28.50;;
64619;SDS011;51029;51.058;13.826;2024-03-08T04:22:00;41.63;;;28.77;;
64619;SDS011;51029;51.058;13.826;2024-03-08T04:24:26;44.43;;;28.97;;
64619;SDS011;51029;51.058;13.826;2024-03-08T04:26:52;41.10;;;28.40;;
64619;SDS011;51029;51.058;13.826;2024-03-08T04:29:18;41.67;;;28.73;;
64619;SDS011;51029;51.058;13.826;2024-03-08T04:31:44;46.53;;;28.97;;
64619;SDS011;51029;51.058;13.826;2024-03-08T04:34:10;43.57;;;28.47;;
64619;SDS011;51029;51.058;13.826;2024-03-08T04:36:36;44.47;;;28.73;;
64619;SDS011;51029;51.058;13.826;2024-03-08T04:39:02;45.17;;;29.93;;
64619;SDS011;51029;51.058;13.826;2024-03-08T04:41:28;46.47;;;30.33;;
64619;SDS011;51029;51.058;13.826;2024-03-08T04:43:55;46.37;;;29.97;;
64619;SDS011;51029;51.058;13.826;2024-03-08T04:46:22;43.47;;;29.60;;
64619;SDS011;51029;51.058;13.826;2024-03-08T04:48:48;44.20;;;28.60;;
64619;SDS011;51029;51.058;13.826;2024-03-08T04:51:14;44.33;;;30.30;;
64619;SDS011;51029;51.058;13.826;2024-03-08T04:53:40;47.10;;;31.20;;
64619;SDS011;51029;51.058;13.826;2024-03-08T04:56:06;47.60;;;30.33;;
64619;SDS011;51029;51.058;13.826;2024-03-08T04:58:33;45.33;;;30.50;;
64619;SDS011;51029;51.058;13.826;2024-03-08T05:01:01;46.63;;;30.60;;
64619;SDS011;51029;51.058;13.826;2024-03-08T05:03:27;49.17;;;32.70;;
64619;SDS011;51029;51.058;13.826;2024-03-08T05:05:53;50.20;;;31.67;;
64619;SDS011;51029;51.058;13.826;2024-03-08T05:08:19;43.67;;;30.97;;
64619;SDS011;51029;51.058;13.826;2024-03-08T05:10:45;50.10;;;31.17;;
64619;SDS011;51029;51.058;13.826;2024-03-08T05:13:11;47.23;;;30.60;;
64619;SDS011;51029;51.058;13.826;2024-03-08T05:15:41;48.37;;;31.00;;
64619;SDS011;51029;51.058;13.826;2024-03-08T05:18:07;48.50;;;30.77;;
64619;SDS011;51029;51.058;13.826;2024-03-08T05:20:36;46.97;;;31.03;;
64619;SDS011;51029;51.058;13.826;2024-03-08T05:23:02;46.80;;;31.27;;
64619;SDS011;51029;51.058;13.826;2024-03-08T05:25:28;48.43;;;31.27;;
64619;SDS011;51029;51.058;13.826;2024-03-08T05:27:54;50.00;;;30.30;;
64619;SDS011;51029;51.058;13.826;2024-03-08T05:30:20;45.43;;;30.50;;
64619;SDS011;51029;51.058;13.826;2024-03-08T05:32:46;49.17;;;32.43;;
64619;SDS011;51029;51.058;13.826;2024-03-08T05:35:12;47.50;;;31.83;;
64619;SDS011;51029;51.058;13.826;2024-03-08T05:37:41;49.07;;;31.37;;
64619;SDS011;51029;51.058;13.826;2024-03-08T05:40:07;51.23;;;32.17;;
64619;SDS011;51029;51.058;13.826;2024-03-08T05:42:36;50.77;;;31.67;;
64619;SDS011;51029;51.058;13.826;2024-03-08T05:45:03;48.13;;;31.40;;
64619;SDS011;51029;51.058;13.826;2024-03-08T05:47:29;46.57;;;31.87;;
64619;SDS011;51029;51.058;13.826;2024-03-08T05:49:54;48.80;;;32.70;;
64619;SDS011;51029;51.058;13.826;2024-03-08T05:52:20;48.67;;;32.47;;
64619;SDS011;51029;51.058;13.826;2024-03-08T05:54:46;48.87;;;32.57;;
64619;SDS011;51029;51.058;13.826;2024-03-08T05:57:12;54.30;;;33.57;;
64619;SDS011;51029;51.058;13.826;2024-03-08T05:59:39;49.63;;;32.70;;
64619;SDS011;51029;51.058;13.826;2024-03-08T06:02:05;50.53;;;32.97;;
64619;SDS011;51029;51.058;13.826;2024-03-08T06:04:31;53.13;;;34.00;;
64619;SDS011;51029;51.058;13.826;2024-03-08T06:06:57;49.53;;;32.23;;
64619;SDS011;51029;51.058;13.826;2024-03-08T06:09:23;48.87;;;32.43;;
64619;SDS011;51029;51.058;13.826;2024-03-08T06:11:49;52.13;;;34.33;;
64619;SDS011;51029;51.058;13.826;2024-03-08T06:14:15;50.40;;;33.47;;
64619;SDS011;51029;51.058;13.826;2024-03-08T06:16:44;54.60;;;33.47;;
64619;SDS011;51029;51.058;13.826;2024-03-08T06:19:10;51.83;;;34.17;;
64619;SDS011;51029;51.058;13.826;2024-03-08T06:21:37;51.53;;;34.47;;
64619;SDS011;51029;51.058;13.826;2024-03-08T06:24:03;50.27;;;34.27;;
64619;SDS011;51029;51.058;13.826;2024-03-08T06:26:29;55.00;;;33.33;;
64619;SDS011;51029;51.058;13.826;2024-03-08T06:28:55;50.87;;;33.37;;
64619;SDS011;51029;51.058;13.826;2024-03-08T06:31:21;53.97;;;33.97;;
64619;SDS011;51029;51.058;13.826;2024-03-08T06:33:47;55.43;;;33.53;;
64619;SDS011;51029;51.058;13.826;2024-03-08T06:36:16;50.03;;;33.37;;
64619;SDS011;51029;51.058;13.826;2024-03-08T06:38:46;50.77;;;34.27;;
64619;SDS011;51029;51.058;13.826;2024-03-08T06:41:12;53.97;;;35.50;;
64619;SDS011;51029;51.058;13.826;2024-03-08T06:43:40;53.47;;;34.30;;
64619;SDS011;51029;51.058;13.826;2024-03-08T06:46:06;50.87;;;34.37;;
64619;SDS011;51029;51.058;13.826;2024-03-08T06:48:32;53.17;;;33.63;;
64619;SDS011;51029;51.058;13.826;2024-03-08T06:50:58;52.37;;;34.83;;
64619;SDS011;51029;51.058;13.826;2024-03-08T06:53:24;61.10;;;36.77;;
64619;SDS011;51029;51.058;13.826;2024-03-08T06:55:50;48.87;;;33.03;;
64619;SDS011;51029;51.058;13.826;2024-03-08T06:58:16;57.53;;;35.70;;
64619;SDS011;51029;51.058;13.826;2024-03-08T07:00:42;55.90;;;34.90;;
64619;SDS011;51029;51.058;13.826;2024-03-08T07:03:09;51.20;;;33.77;;
64619;SDS011;51029;51.058;13.826;2024-03-08T07:05:38;52.40;;;34.60;;
64619;SDS011;51029;51.058;13.826;2024-03-08T07:08:05;55.23;;;36.57;;
64619;SDS011;51029;51.058;13.826;2024-03-08T07:10:31;53.43;;;35.67;;
64619;SDS011;51029;51.058;13.826;2024-03-08T07:12:57;52.13;;;33.57;;
64619;SDS011;51029;51.058;13.826;2024-03-08T07:15:23;50.43;;;36.53;;
64619;SDS011;51029;51.058;13.826;2024-03-08T07:17:49;49.70;;;33.10;;
64619;SDS011;51029;51.058;13.826;2024-03-08T07:20:17;52.80;;;34.83;;
64619;SDS011;51029;51.058;13.826;2024-03-08T07:22:44;58.23;;;36.30;;
64619;SDS011;51029;51.058;13.826;2024-03-08T07:25:12;52.27;;;34.90;;
64619;SDS011;51029;51.058;13.826;2024-03-08T07:27:48;50.43;;;33.13;;
64619;SDS011;51029;51.058;13.826;2024-03-08T07:30:14;50.77;;;32.20;;
64619;SDS011;51029;51.058;13.826;2024-03-08T07:32:59;48.23;;;31.80;;
64619;SDS011;51029;51.058;13.826;2024-03-08T07:35:27;44.73;;;31.53;;
64619;SDS011;51029;51.058;13.826;2024-03-08T07:37:53;43.73;;;30.00;;
64619;SDS011;51029;51.058;13.826;2024-03-08T07:40:20;45.60;;;30.47;;
64619;SDS011;51029;51.058;13.826;2024-03-08T07:42:46;40.40;;;29.30;;
64619;SDS011;51029;51.058;13.826;2024-03-08T07:45:12;41.43;;;29.07;;
64619;SDS011;51029;51.058;13.826;2024-03-08T07:47:38;43.17;;;29.03;;
64619;SDS011;51029;51.058;13.826;2024-03-08T07:50:05;41.30;;;28.17;;
64619;SDS011;51029;51.058;13.826;2024-03-08T07:52:33;40.43;;;28.63;;
64619;SDS011;51029;51.058;13.826;2024-03-08T07:54:59;43.17;;;29.50;;
64619;SDS011;51029;51.058;13.826;2024-03-08T07:57:25;41.00;;;28.10;;
64619;SDS011;51029;51.058;13.826;2024-03-08T07:59:51;40.33;;;27.90;;
64619;SDS011;51029;51.058;13.826;2024-03-08T08:02:17;39.63;;;28.57;;
64619;SDS011;51029;51.058;13.826;2024-03-08T08:04:43;37.97;;;26.83;;
64619;SDS011;51029;51.058;13.826;2024-03-08T08:07:12;38.60;;;27.77;;
64619;SDS011;51029;51.058;13.826;2024-03-08T08:09:39;42.57;;;27.73;;
64619;SDS011;51029;51.058;13.826;2024-03-08T08:12:07;38.30;;;28.27;;
64619;SDS011;51029;51.058;13.826;2024-03-08T08:14:36;33.93;;;25.77;;
64619;SDS011;51029;51.058;13.826;2024-03-08T08:17:02;34.30;;;24.70;;
64619;SDS011;51029;51.058;13.826;2024-03-08T08:19:29;36.43;;;24.93;;
64619;SDS011;51029;51.058;13.826;2024-03-08T08:21:55;34.53;;;24.67;;
64619;SDS011;51029;51.058;13.826;2024-03-08T08:24:21;33.40;;;24.47;;
64619;SDS011;51029;51.058;13.826;2024-03-08T08:26:47;32.77;;;23.97;;
64619;SDS011;51029;51.058;13.826;2024-03-08T08:29:13;35.40;;;24.43;;
64619;SDS011;51029;51.058;13.826;2024-03-08T08:31:39;31.30;;;22.77;;
64619;SDS011;51029;51.058;13.826;2024-03-08T08:34:05;32.30;;;23.50;;
64619;SDS011;51029;51.058;13.826;2024-03-08T08:36:32;30.77;;;23.53;;
64619;SDS011;51029;51.058;13.826;2024-03-08T08:38:59;31.50;;;22.67;;
64619;SDS011;51029;51.058;13.826;2024-03-08T08:41:25;34.53;;;23.37;;
64619;SDS011;51029;51.058;13.826;2024-03-08T08:43:52;30.50;;;23.10;;
64619;SDS011;51029;51.058;13.826;2024-03-08T08:46:18;32.40;;;23.60;;
64619;SDS011;51029;51.058;13.826;2024-03-08T08:48:44;29.10;;;22.37;;
64619;SDS011;51029;51.058;13.826;2024-03-08T08:51:11;31.03;;;23.63;;
64619;SDS011;51029;51.058;13.826;2024-03-08T08:53:38;33.70;;;22.73;;
64619;SDS011;51029;51.058;13.826;2024-03-08T08:56:05;30.17;;;21.37;;
64619;SDS011;51029;51.058;13.826;2024-03-08T08:58:33;28.33;;;21.20;;
64619;SDS011;51029;51.058;13.826;2024-03-08T09:00:58;30.13;;;22.07;;
64619;SDS011;51029;51.058;13.826;2024-03-08T09:03:25;29.53;;;21.90;;
64619;SDS011;51029;51.058;13.826;2024-03-08T09:05:53;32.50;;;22.17;;
64619;SDS011;51029;51.058;13.826;2024-03-08T09:08:19;29.50;;;21.97;;
64619;SDS011;51029;51.058;13.826;2024-03-08T09:10:45;30.50;;;22.27;;
64619;SDS011;51029;51.058;13.826;2024-03-08T09:13:13;29.40;;;21.70;;
64619;SDS011;51029;51.058;13.826;2024-03-08T09:15:39;32.60;;;22.77;;
64619;SDS011;51029;51.058;13.826;2024-03-08T09:18:06;28.10;;;20.60;;
64619;SDS011;51029;51.058;13.826;2024-03-08T09:20:34;27.27;;;20.60;;
64619;SDS011;51029;51.058;13.826;2024-03-08T09:23:00;27.33;;;20.33;;
64619;SDS011;51029;51.058;13.826;2024-03-08T09:25:26;28.13;;;20.10;;
64619;SDS011;51029;51.058;13.826;2024-03-08T09:27:53;27.50;;;19.80;;
64619;SDS011;51029;51.058;13.826;2024-03-08T09:30:19;25.63;;;19.77;;
64619;SDS011;51029;51.058;13.826;2024-03-08T09:32:46;27.47;;;20.20;;
64619;SDS011;51029;51.058;13.826;2024-03-08T09:35:12;28.93;;;21.30;;
64619;SDS011;51029;51.058;13.826;2024-03-08T09:37:38;27.37;;;20.33;;
64619;SDS011;51029;51.058;13.826;2024-03-08T09:40:04;32.03;;;25.73;;
64619;SDS011;51029;51.058;13.826;2024-03-08T09:42:34;24.63;;;18.90;;
64619;SDS011;51029;51.058;13.826;2024-03-08T09:45:03;25.53;;;19.30;;
64619;SDS011;51029;51.058;13.826;2024-03-08T09:47:29;24.67;;;18.13;;
64619;SDS011;51029;51.058;13.826;2024-03-08T09:49:58;24.77;;;18.43;;
64619;SDS011;51029;51.058;13.826;2024-03-08T09:52:24;24.20;;;19.00;;
64619;SDS011;51029;51.058;13.826;2024-03-08T09:54:50;23.53;;;18.03;;
64619;SDS011;51029;51.058;13.826;2024-03-08T09:57:16;23.30;;;18.40;;
64619;SDS011;51029;51.058;13.826;2024-03-08T09:59:43;21.73;;;17.63;;
64619;SDS011;51029;51.058;13.826;2024-03-08T10:02:13;19.53;;;17.17;;
64619;SDS011;51029;51.058;13.826;2024-03-08T10:04:40;23.30;;;16.90;;
64619;SDS011;51029;51.058;13.826;2024-03-08T10:07:11;18.03;;;15.60;;
64619;SDS011;51029;51.058;13.826;2024-03-08T10:09:37;19.13;;;15.93;;
64619;SDS011;51029;51.058;13.826;2024-03-08T10:12:04;17.83;;;15.20;;
64619;SDS011;51029;51.058;13.826;2024-03-08T10:14:30;19.23;;;16.03;;
64619;SDS011;51029;51.058;13.826;2024-03-08T10:16:57;21.67;;;16.90;;
64619;SDS011;51029;51.058;13.826;2024-03-08T10:19:26;19.00;;;15.37;;
64619;SDS011;51029;51.058;13.826;2024-03-08T10:21:55;21.43;;;16.37;;
64619;SDS011;51029;51.058;13.826;2024-03-08T10:24:24;18.47;;;16.47;;
64619;SDS011;51029;51.058;13.826;2024-03-08T10:26:53;19.83;;;16.97;;
64619;SDS011;51029;51.058;13.826;2024-03-08T10:29:19;19.33;;;17.27;;
64619;SDS011;51029;51.058;13.826;2024-03-08T10:31:45;24.97;;;22.27;;
64619;SDS011;51029;51.058;13.826;2024-03-08T10:34:11;19.23;;;16.50;;
64619;SDS011;51029;51.058;13.826;2024-03-08T10:36:37;19.50;;;16.30;;
64619;SDS011;51029;51.058;13.826;2024-03-08T10:39:06;20.07;;;16.47;;
64619;SDS011;51029;51.058;13.826;2024-03-08T10:41:34;20.07;;;16.83;;
64619;SDS011;51029;51.058;13.826;2024-03-08T10:44:07;19.53;;;16.37;;
64619;SDS011;51029;51.058;13.826;2024-03-08T10:46:43;19.63;;;15.73;;
64619;SDS011;51029;51.058;13.826;2024-03-08T10:49:15;17.80;;;15.63;;
64619;SDS011;51029;51.058;13.826;2024-03-08T10:51:42;19.47;;;15.47;;
64619;SDS011;51029;51.058;13.826;2024-03-08T10:54:09;19.33;;;15.73;;
64619;SDS011;51029;51.058;13.826;2024-03-08T10:56:36;17.63;;;15.70;;
64619;SDS011;51029;51.058;13.826;2024-03-08T10:59:02;19.53;;;15.53;;
64619;SDS011;51029;51.058;13.826;2024-03-08T11:01:29;17.83;;;14.50;;
64619;SDS011;51029;51.058;13.826;2024-03-08T11:03:55;19.77;;;15.90;;
64619;SDS011;51029;51.058;13.826;2024-03-08T11:08:57;19.20;;;16.23;;
64619;SDS011;51029;51.058;13.826;2024-03-08T11:11:30;18.50;;;16.50;;
64619;SDS011;51029;51.058;13.826;2024-03-08T11:13:57;21.37;;;16.30;;
64619;SDS011;51029;51.058;13.826;2024-03-08T11:18:58;18.17;;;15.30;;
64619;SDS011;51029;51.058;13.826;2024-03-08T11:21:32;17.90;;;15.43;;
64619;SDS011;51029;51.058;13.826;2024-03-08T11:24:01;19.00;;;13.90;;
64619;SDS011;51029;51.058;13.826;2024-03-08T11:26:30;17.13;;;15.10;;
64619;SDS011;51029;51.058;13.826;2024-03-08T11:31:41;17.37;;;14.50;;
64619;SDS011;51029;51.058;13.826;2024-03-08T11:34:15;19.00;;;15.40;;
64619;SDS011;51029;51.058;13.826;2024-03-08T11:36:41;17.37;;;14.90;;
64619;SDS011;51029;51.058;13.826;2024-03-08T11:39:07;16.00;;;13.60;;
64619;SDS011;51029;51.058;13.826;2024-03-08T11:41:39;24.03;;;19.93;;
64619;SDS011;51029;51.058;13.826;2024-03-08T11:44:06;16.30;;;13.77;;
64619;SDS011;51029;51.058;13.826;2024-03-08T11:46:34;15.60;;;13.13;;
64619;SDS011;51029;51.058;13.826;2024-03-08T11:49:00;15.63;;;13.00;;
64619;SDS011;51029;51.058;13.826;2024-03-08T11:51:26;15.07;;;13.20;;
64619;SDS011;51029;51.058;13.826;2024-03-08T11:53:53;16.03;;;13.00;;
64619;SDS011;51029;51.058;13.826;2024-03-08T11:56:19;14.70;;;13.10;;
64619;SDS011;51029;51.058;13.826;2024-03-08T11:58:52;15.27;;;11.53;;
64619;SDS011;51029;51.058;13.826;2024-03-08T12:01:18;15.23;;;11.83;;
64619;SDS011;51029;51.058;13.826;2024-03-08T12:03:44;14.87;;;11.80;;
64619;SDS011;51029;51.058;13.826;2024-03-08T12:06:18;13.43;;;11.53;;
64619;SDS011;51029;51.058;13.826;2024-03-08T12:08:45;13.63;;;11.33;;
64619;SDS011;51029;51.058;13.826;2024-03-08T12:11:14;13.73;;;11.90;;
64619;SDS011;51029;51.058;13.826;2024-03-08T12:13:41;13.33;;;11.53;;
64619;SDS011;51029;51.058;13.826;2024-03-08T12:16:07;18.80;;;13.03;;
64619;SDS011;51029;51.058;13.826;2024-03-08T12:18:35;13.63;;;11.60;;
64619;SDS011;51029;51.058;13.826;2024-03-08T12:21:06;14.07;;;11.70;;
64619;SDS011;51029;51.058;13.826;2024-03-08T12:23:42;13.40;;;12.03;;
64619;SDS011;51029;51.058;13.826;2024-03-08T12:26:15;13.23;;;11.37;;
64619;SDS011;51029;51.058;13.826;2024-03-08T12:28:41;14.30;;;11.60;;
64619;SDS011;51029;51.058;13.826;2024-03-08T12:31:14;13.57;;;11.90;;
64619;SDS011;51029;51.058;13.826;2024-03-08T12:33:52;13.47;;;11.50;;
64619;SDS011;51029;51.058;13.826;2024-03-08T12:36:19;13.63;;;11.53;;
64619;SDS011;51029;51.058;13.826;2024-03-08T12:38:47;13.87;;;11.93;;
64619;SDS011;51029;51.058;13.826;2024-03-08T12:41:17;12.90;;;11.50;;
64619;SDS011;51029;51.058;13.826;2024-03-08T12:43:44;13.43;;;11.03;;
64619;SDS011;51029;51.058;13.826;2024-03-08T12:46:14;13.60;;;11.67;;
64619;SDS011;51029;51.058;13.826;2024-03-08T12:48:40;13.47;;;11.37;;
64619;SDS011;51029;51.058;13.826;2024-03-08T12:51:06;12.70;;;11.37;;
64619;SDS011;51029;51.058;13.826;2024-03-08T12:53:32;13.80;;;12.07;;
64619;SDS011;51029;51.058;13.826;2024-03-08T12:55:58;15.07;;;11.33;;
64619;SDS011;51029;51.058;13.826;2024-03-08T12:58:25;13.70;;;11.73;;
64619;SDS011;51029;51.058;13.826;2024-03-08T13:00:51;14.00;;;11.90;;
64619;SDS011;51029;51.058;13.826;2024-03-08T13:03:17;15.50;;;11.40;;
64619;SDS011;51029;51.058;13.826;2024-03-08T13:05:43;13.23;;;11.57;;
64619;SDS011;51029;51.058;13.826;2024-03-08T13:08:09;14.63;;;12.77;;
64619;SDS011;51029;51.058;13.826;2024-03-08T13:10:38;13.57;;;12.17;;
64619;SDS011;51029;51.058;13.826;2024-03-08T13:13:04;13.47;;;11.40;;
64619;SDS011;51029;51.058;13.826;2024-03-08T13:15:30;12.53;;;10.50;;
64619;SDS011;51029;51.058;13.826;2024-03-08T13:17:58;12.27;;;10.67;;
64619;SDS011;51029;51.058;13.826;2024-03-08T13:20:25;11.70;;;10.07;;
64619;SDS011;51029;51.058;13.826;2024-03-08T13:22:53;12.57;;;9.93;;
64619;SDS011;51029;51.058;13.826;2024-03-08T13:25:19;12.93;;;10.20;;
64619;SDS011;51029;51.058;13.826;2024-03-08T13:27:45;12.20;;;9.80;;
64619;SDS011;51029;51.058;13.826;2024-03-08T13:30:12;11.17;;;9.83;;
64619;SDS011;51029;51.058;13.826;2024-03-08T13:32:41;11.60;;;9.93;;
64619;SDS011;51029;51.058;13.826;2024-03-08T13:35:10;11.60;;;10.40;;
64619;SDS011;51029;51.058;13.826;2024-03-08T13:37:39;13.17;;;10.13;;
64619;SDS011;51029;51.058;13.826;2024-03-08T13:40:05;10.80;;;9.70;;
64619;SDS011;51029;51.058;13.826;2024-03-08T13:42:35;13.07;;;10.27;;
64619;SDS011;51029;51.058;13.826;2024-03-08T13:45:03;11.23;;;9.93;;
64619;SDS011;51029;51.058;13.826;2024-03-08T13:47:29;12.37;;;10.63;;
64619;SDS011;51029;51.058;13.826;2024-03-08T13:49:56;12.53;;;10.73;;
64619;SDS011;51029;51.058;13.826;2024-03-08T13:52:22;12.23;;;10.50;;
64619;SDS011;51029;51.058;13.826;2024-03-08T13:54:50;12.10;;;10.00;;
64619;SDS011;51029;51.058;13.826;2024-03-08T13:57:16;11.47;;;10.00;;
64619;SDS011;51029;51.058;13.826;2024-03-08T13:59:43;11.00;;;9.80;;
64619;SDS011;51029;51.058;13.826;2024-03-08T14:02:09;10.87;;;9.40;;
64619;SDS011;51029;51.058;13.826;2024-03-08T14:04:38;9.70;;;8.70;;
64619;SDS011;51029;51.058;13.826;2024-03-08T14:07:06;10.70;;;9.37;;
64619;SDS011;51029;51.058;13.826;2024-03-08T14:09:33;10.97;;;9.70;;
64619;SDS011;51029;51.058;13.826;2024-03-08T14:12:02;10.60;;;9.23;;
64619;SDS011;51029;51.058;13.826;2024-03-08T14:14:31;10.27;;;9.20;;